Annapolis, Indiana
Current Conditions -  °F | °C
As of 9:55 AM on Monday 24 Nov 2014 (Local Time) from KPRG Reporting Station
Overcast Overcast  
Wind Chill: 25°   Ceiling: 1500
Heat Index: 37°   Visibility: 10mi
Dew Point: 34°   Wind: 25mph
Humidity: 89%   Direction: 250°WSW
Pressure: 29.48"   Gusts: 35mph
Location:  39.8468°N, 87.2662°W
Report Text: KPRG 241455Z AUTO 25022G30KT 10SM OVC015 03/01 A2948 RMK AO2 T00280011
Loading
Personal Weather Stations






























Interactive Weather Map New forecast layout! Learn more

10-Day Weather Forecast

Advertisements
Track Severe Weather on mobile